Dades meteomassalio
Diari Summary for Nil La, TWC- Units:  English    Metric   Both
« Previous Day
Next Day »
Diari Semanal Mensual Anual Personalitzat
  Maxima: Minima: Mijana:
Temperatura: TemperatureC °F 13.9 °F 16.1 °F
Rosada: DewpointC °F 7.8 °F 9.2 °F
Humitat: Humidity % 58 % 63 %
Velocitat del vent: WindSpeedKMH mph 3.2 mph 17.9 mph
Racha vent: WindSpeedGustKMH mph - -
Vent:- - WNW
Pressio: PressurehPa in 1021.7 in -
Pluja: 0.0 in    
Historical Graphs
 
 
Tabular Data for Nil La, TWC-
Time Temperature Dew Point Pressure Wind Wind Speed Wind Gust Humidity Rainfall Rate (Hourly) solar Conditions
TemperatureC °F DewpointC °F PressurehPa in Calm     Humidity % HourlyPrecipMM in SolarRadiationWatts/m^2 W/m2 Conditions
00:04 18.9 °F 10.4 °F 1021.7 in NW 27.8 mph 21.7 mph 58 % 0.0 in 0.00 W/m2 CLR
00:09 18.9 °F 10.4 °F 1021.8 in NW 24.1 mph 15.3 mph 58 % 0.0 in 0.00 W/m2 CLR
00:14 18.9 °F 10.4 °F 1022.0 in WNW 20.9 mph 17.9 mph 58 % 0.0 in 0.00 W/m2 CLR
00:19 18.3 °F 9.9 °F 1021.9 in NW 20.4 mph 17.5 mph 58 % 0.0 in 0.00 W/m2 CLR
00:24 18.3 °F 9.9 °F 1022.0 in NW 25.7 mph 21.7 mph 58 % 0.0 in 0.00 W/m2 CLR
00:29 18.3 °F 9.9 °F 1022.0 in NNW 18.5 mph 12.9 mph 58 % 0.0 in 0.00 W/m2 CLR
00:34 18.3 °F 10.2 °F 1022.0 in NW 22.5 mph 13.8 mph 59 % 0.0 in 0.00 W/m2 CLR
00:39 18.3 °F 10.2 °F 1022.1 in NW 22.2 mph 16.3 mph 59 % 0.0 in 0.00 W/m2 CLR
00:44 18.3 °F 10.2 °F 1022.1 in NW 25.9 mph 20.6 mph 59 % 0.0 in 0.00 W/m2 CLR
00:49 18.3 °F 10.2 °F 1022.1 in WNW 24.1 mph 15.3 mph 59 % 0.0 in 0.00 W/m2 CLR
00:54 18.3 °F 10.2 °F 1022.2 in WNW 20.4 mph 16.4 mph 59 % 0.0 in 0.00 W/m2 CLR
00:59 17.8 °F 9.7 °F 1022.3 in WNW 18.5 mph 13.7 mph 59 % 0.0 in 0.00 W/m2 CLR
01:04 17.8 °F 9.7 °F 1022.4 in NW 18.5 mph 13.5 mph 59 % 0.0 in 0.00 W/m2 CLR
01:09 17.8 °F 9.7 °F 1022.5 in NW 14.8 mph 13.2 mph 59 % 0.0 in 0.00 W/m2 CLR
01:14 17.8 °F 9.7 °F 1022.5 in NW 22.2 mph 16.3 mph 59 % 0.0 in 0.00 W/m2 CLR
01:19 17.8 °F 9.7 °F 1022.5 in NNW 20.4 mph 15.9 mph 59 % 0.0 in 0.00 W/m2 CLR
01:24 17.8 °F 9.7 °F 1022.5 in WNW 20.4 mph 14.8 mph 59 % 0.0 in 0.00 W/m2 CLR
01:29 17.8 °F 9.7 °F 1022.5 in NNW 18.5 mph 15.8 mph 59 % 0.0 in 0.00 W/m2 CLR
01:34 17.2 °F 9.1 °F 1022.4 in WNW 25.9 mph 20.6 mph 59 % 0.0 in 0.00 W/m2 CLR
01:39 17.2 °F 9.4 °F 1022.5 in NW 24.1 mph 19.0 mph 60 % 0.0 in 0.00 W/m2 CLR
01:44 17.2 °F 9.4 °F 1022.5 in WNW 20.4 mph 15.3 mph 60 % 0.0 in 0.00 W/m2 CLR
01:49 17.2 °F 9.4 °F 1022.5 in NNW 17.7 mph 8.8 mph 60 % 0.0 in 0.00 W/m2 CLR
01:54 17.2 °F 9.6 °F 1022.6 in WNW 17.7 mph 15.1 mph 61 % 0.0 in 0.00 W/m2 CLR
01:59 17.2 °F 9.6 °F 1022.6 in WNW 22.2 mph 15.8 mph 61 % 0.0 in 0.00 W/m2 CLR
02:04 16.7 °F 9.1 °F 1022.6 in NW 22.2 mph 14.5 mph 61 % 0.0 in 0.00 W/m2 CLR
02:09 16.7 °F 9.3 °F 1022.7 in WNW 22.2 mph 17.5 mph 62 % 0.0 in 0.00 W/m2 CLR
02:14 17.2 °F 9.9 °F 1022.7 in NW 24.1 mph 14.2 mph 62 % 0.0 in 0.00 W/m2 CLR
02:19 16.7 °F 9.3 °F 1022.8 in NW 29.6 mph 19.6 mph 62 % 0.0 in 0.00 W/m2 CLR
02:24 16.7 °F 9.3 °F 1022.8 in NW 14.8 mph 12.1 mph 62 % 0.0 in 0.00 W/m2 CLR
02:29 16.7 °F 9.6 °F 1022.8 in WNW 20.9 mph 14.6 mph 63 % 0.0 in 0.00 W/m2 CLR
02:34 16.7 °F 9.6 °F 1022.8 in WNW 20.4 mph 15.3 mph 63 % 0.0 in 0.00 W/m2 CLR
02:39 16.7 °F 9.6 °F 1022.7 in WNW 18.5 mph 11.4 mph 63 % 0.0 in 0.00 W/m2 CLR
02:44 16.7 °F 9.6 °F 1022.6 in NW 18.5 mph 14.6 mph 63 % 0.0 in 0.00 W/m2 CLR
02:49 16.7 °F 9.6 °F 1022.8 in WNW 18.5 mph 15.0 mph 63 % 0.0 in 0.00 W/m2 CLR
02:54 16.7 °F 9.6 °F 1022.7 in NW 19.3 mph 11.4 mph 63 % 0.0 in 0.00 W/m2 CLR
02:59 16.1 °F 9.1 °F 1022.8 in WNW 16.1 mph 15.9 mph 63 % 0.0 in 0.00 W/m2 CLR
03:04 16.1 °F 9.1 °F 1022.7 in WNW 18.5 mph 11.9 mph 63 % 0.0 in 0.00 W/m2 CLR
03:09 16.1 °F 9.1 °F 1022.8 in WNW 18.5 mph 17.2 mph 63 % 0.0 in 0.00 W/m2 CLR
03:14 16.1 °F 9.1 °F 1022.8 in NW 11.3 mph 10.8 mph 63 % 0.0 in 0.00 W/m2 CLR
03:19 16.1 °F 9.1 °F 1022.7 in WNW 18.5 mph 12.6 mph 63 % 0.0 in 0.00 W/m2 CLR
03:24 16.1 °F 9.1 °F 1022.8 in NW 20.4 mph 15.0 mph 63 % 0.0 in 0.00 W/m2 CLR
03:29 16.1 °F 9.1 °F 1022.8 in WNW 20.4 mph 14.6 mph 63 % 0.0 in 0.00 W/m2 CLR
03:34 16.1 °F 9.1 °F 1022.8 in WNW 22.2 mph 17.1 mph 63 % 0.0 in 0.00 W/m2 CLR
03:39 16.1 °F 9.1 °F 1022.8 in NW 22.2 mph 17.5 mph 63 % 0.0 in 0.00 W/m2 CLR
03:44 16.1 °F 9.1 °F 1022.7 in NW 18.5 mph 15.3 mph 63 % 0.0 in 0.00 W/m2 CLR
03:49 16.1 °F 9.1 °F 1022.8 in WNW 18.5 mph 12.2 mph 63 % 0.0 in 0.00 W/m2 CLR
03:54 16.1 °F 9.1 °F 1022.8 in WNW 18.5 mph 12.2 mph 63 % 0.0 in 0.00 W/m2 CLR
03:59 16.1 °F 9.3 °F 1022.8 in NW 16.7 mph 13.8 mph 64 % 0.0 in 0.00 W/m2 CLR
04:04 16.1 °F 9.3 °F 1022.8 in WNW 16.7 mph 9.0 mph 64 % 0.0 in 0.00 W/m2 CLR
04:09 16.1 °F 9.3 °F 1022.8 in WNW 20.4 mph 13.2 mph 64 % 0.0 in 0.00 W/m2 CLR
04:14 16.1 °F 9.3 °F 1022.8 in WNW 18.5 mph 16.6 mph 64 % 0.0 in 0.00 W/m2 CLR
04:19 16.1 °F 9.3 °F 1022.8 in WNW 20.9 mph 16.9 mph 64 % 0.0 in 0.00 W/m2 CLR
04:24 16.1 °F 9.3 °F 1022.8 in WNW 14.8 mph 12.7 mph 64 % 0.0 in 0.00 W/m2 CLR
04:29 16.1 °F 9.3 °F 1022.8 in WNW 18.5 mph 11.1 mph 64 % 0.0 in 0.00 W/m2 CLR
04:34 16.1 °F 9.3 °F 1022.8 in WNW 18.5 mph 12.1 mph 64 % 0.0 in 0.00 W/m2 CLR
04:39 16.1 °F 9.3 °F 1022.9 in NW 24.1 mph 17.1 mph 64 % 0.0 in 0.00 W/m2 CLR
04:44 16.1 °F 9.3 °F 1022.9 in NW 18.5 mph 13.4 mph 64 % 0.0 in 0.00 W/m2 CLR
04:49 16.1 °F 9.3 °F 1022.9 in WNW 16.1 mph 12.1 mph 64 % 0.0 in 0.00 W/m2 CLR
04:54 16.1 °F 9.3 °F 1022.9 in NW 16.7 mph 12.9 mph 64 % 0.0 in 0.00 W/m2 CLR
04:59 16.1 °F 9.3 °F 1022.9 in NW 16.1 mph 14.6 mph 64 % 0.0 in 0.00 W/m2 CLR
05:04 15.6 °F 9.0 °F 1022.9 in WNW 14.8 mph 11.7 mph 65 % 0.0 in 0.00 W/m2 CLR
05:09 15.6 °F 9.0 °F 1022.9 in WNW 16.7 mph 13.7 mph 65 % 0.0 in 0.00 W/m2 CLR
05:14 15.6 °F 9.0 °F 1022.7 in West 16.7 mph 4.5 mph 65 % 0.0 in 0.00 W/m2 CLR
05:19 15.6 °F 9.0 °F 1022.7 in WNW 16.7 mph 12.7 mph 65 % 0.0 in 0.00 W/m2 CLR
05:24 15.6 °F 9.2 °F 1022.7 in WNW 22.2 mph 11.6 mph 66 % 0.0 in 0.00 W/m2 CLR
05:29 15.6 °F 9.2 °F 1022.7 in WNW 18.5 mph 16.3 mph 66 % 0.0 in 0.00 W/m2 CLR
05:34 15.6 °F 9.2 °F 1022.7 in WNW 18.5 mph 13.4 mph 66 % 0.0 in 0.00 W/m2 CLR
05:39 15.6 °F 9.2 °F 1022.7 in WNW 18.5 mph 13.4 mph 66 % 0.0 in 0.00 W/m2 CLR
05:44 15.6 °F 9.2 °F 1022.6 in WNW 17.7 mph 14.2 mph 66 % 0.0 in 0.00 W/m2 CLR
05:49 15.6 °F 9.2 °F 1022.5 in West 18.5 mph 8.2 mph 66 % 0.0 in 0.00 W/m2 CLR
05:54 15.6 °F 9.2 °F 1022.6 in WNW 20.4 mph 16.4 mph 66 % 0.0 in 0.00 W/m2 CLR
05:59 15.6 °F 9.2 °F 1022.7 in WNW 16.7 mph 3.4 mph 66 % 0.0 in 0.00 W/m2 CLR
06:04 15.6 °F 9.2 °F 1022.6 in WNW 18.5 mph 13.7 mph 66 % 0.0 in 0.00 W/m2 CLR
06:09 15.6 °F 9.2 °F 1022.7 in West 16.7 mph 11.1 mph 66 % 0.0 in 0.00 W/m2 CLR
06:14 15.6 °F 9.2 °F 1022.8 in WNW 14.8 mph 11.1 mph 66 % 0.0 in 0.00 W/m2 CLR
06:19 15.6 °F 9.2 °F 1022.8 in WNW 14.8 mph 6.1 mph 66 % 0.0 in 0.00 W/m2 CLR
06:24 15.6 °F 9.2 °F 1022.8 in WNW 13.0 mph 7.7 mph 66 % 0.0 in 0.00 W/m2 CLR
06:29 15.6 °F 9.2 °F 1022.9 in NW 16.7 mph 11.3 mph 66 % 0.0 in 0.00 W/m2 CLR
06:34 15.6 °F 9.2 °F 1022.9 in WNW 14.8 mph 8.8 mph 66 % 0.0 in 0.00 W/m2 CLR
06:39 15.6 °F 9.2 °F 1022.9 in WNW 13.0 mph 8.0 mph 66 % 0.0 in 0.00 W/m2 CLR
06:44 15.0 °F 8.7 °F 1023.1 in WNW 13.0 mph 6.9 mph 66 % 0.0 in 0.00 W/m2 CLR
06:49 15.0 °F 8.7 °F 1023.0 in NW 13.0 mph 7.4 mph 66 % 0.0 in 0.00 W/m2 CLR
06:54 15.0 °F 8.7 °F 1023.2 in West 18.5 mph 9.7 mph 66 % 0.0 in 0.00 W/m2 CLR
06:59 15.0 °F 8.7 °F 1023.2 in WNW 5.6 mph 3.2 mph 66 % 0.0 in 0.00 W/m2 CLR
07:04 15.0 °F 8.9 °F 1023.1 in NW 14.8 mph 7.6 mph 67 % 0.0 in 0.00 W/m2 OVC
07:09 14.4 °F 8.4 °F 1023.3 in WNW 14.8 mph 10.6 mph 67 % 0.0 in 0.00 W/m2 OVC
07:14 14.4 °F 8.4 °F 1023.2 in WNW 18.5 mph 11.6 mph 67 % 0.0 in 0.00 W/m2 OVC
07:19 14.4 °F 8.4 °F 1023.2 in NW 13.0 mph 12.6 mph 67 % 0.0 in 5.00 W/m2 OVC
07:24 14.4 °F 8.4 °F 1023.3 in WNW 14.8 mph 12.6 mph 67 % 0.0 in 9.00 W/m2 BKN
07:29 14.4 °F 8.4 °F 1023.4 in WNW 14.5 mph 9.8 mph 67 % 0.0 in 11.00 W/m2 BKN
07:34 13.9 °F 7.8 °F 1023.3 in West 11.1 mph 9.2 mph 67 % 0.0 in 14.00 W/m2 BKN
07:39 14.4 °F 8.6 °F 1023.4 in WNW 16.7 mph 12.9 mph 68 % 0.0 in 16.00 W/m2 BKN
07:44 14.4 °F 8.6 °F 1023.4 in West 12.9 mph 3.4 mph 68 % 0.0 in 21.00 W/m2 BKN
07:49 14.4 °F 8.6 °F 1023.4 in WNW 11.1 mph 7.7 mph 68 % 0.0 in 33.00 W/m2 BKN
07:54 15.0 °F 9.1 °F 1023.6 in WNW 3.2 mph 1.3 mph 68 % 0.0 in 42.00 W/m2 BKN
07:59 15.0 °F 9.1 °F 1023.6 in NW 5.6 mph 2.3 mph 68 % 0.0 in 49.00 W/m2 SCT
08:04 15.0 °F 8.9 °F 1023.5 in WNW 9.3 mph 5.3 mph 67 % 0.0 in 33.00 W/m2 BKN
Lo Temps de Massalio
Compliments of Weather Underground - 512 kb